< < Back
Terminal Aerodrome Forecast


Current Version              Previous Versions:   1  2  3  4  5  6  7  8  9  

Terminal Aerodrome Forecast

174
FTUS42 KJAX 280552
TAFGNV
TAF
KGNV 280552Z 2806/2906 05003KT P6SM SKC
     FM281300 03007KT P6SM FEW040
     FM281800 36008KT P6SM VCSH BKN035 BKN060
     FM290000 03005KT P6SM FEW030 SCT060 SCT100=

Latest METAR

294
SAUS70 KWBC 281300 RRC
MTRGNV
METAR KGNV 281253Z 01005KT 10SM CLR 24/20 A3007 RMK AO2 SLP181
T02440200


USA.gov is the U.S. government's official web portal to all federal, state and local government web resources and services.